Time,TemperatureF,DewpointF,PressureIn,WindDirection,WindDirectionDegrees,WindSpeedMPH,WindSpeedGustMPH,Humidity,HourlyPrecipIn,Conditions,Clouds,dailyrainin,SoftwareType,DateUTC
2013-04-19 00:01:00,47.0,16.0,30.10,ESE,121,0.0,0.0,28,0.00,,,0.00,,2013-04-19 07:01:00,
2013-04-19 00:11:00,46.0,13.0,30.10,ESE,120,1.0,2.0,26,0.00,,,0.00,,2013-04-19 07:11:00,
2013-04-19 00:21:00,46.0,13.0,30.10,ESE,120,1.0,2.0,26,0.00,,,0.00,,2013-04-19 07:21:00,
2013-04-19 00:31:00,46.0,14.0,30.10,ESE,120,0.0,1.0,27,0.00,,,0.00,,2013-04-19 07:31:00,
2013-04-19 00:41:00,46.0,14.0,30.10,ESE,120,0.0,1.0,27,0.00,,,0.00,,2013-04-19 07:41:00,
2013-04-19 00:52:00,45.0,14.0,30.10,ESE,118,0.0,2.0,28,0.00,,,0.00,,2013-04-19 07:52:00,
2013-04-19 01:02:00,45.0,14.0,30.10,South,190,0.0,3.0,28,0.00,,,0.00,,2013-04-19 08:02:00,
2013-04-19 01:12:00,44.0,14.0,30.09,West,267,0.0,3.0,29,0.00,,,0.00,,2013-04-19 08:12:00,
2013-04-19 01:21:00,44.0,14.0,30.09,West,267,0.0,3.0,29,0.00,,,0.00,,2013-04-19 08:21:00,
2013-04-19 01:32:00,44.0,15.0,30.10,WNW,301,0.0,2.0,30,0.00,,,0.00,,2013-04-19 08:32:00,
2013-04-19 01:41:00,44.0,15.0,30.10,WNW,301,1.0,3.0,31,0.00,,,0.00,,2013-04-19 08:41:00,
2013-04-19 01:52:00,44.0,15.0,30.10,WNW,301,1.0,3.0,31,0.00,,,0.00,,2013-04-19 08:52:00,
2013-04-19 02:01:00,46.0,16.0,30.10,WNW,301,0.0,3.0,29,0.00,,,0.00,,2013-04-19 09:01:00,
2013-04-19 02:11:00,45.0,15.0,30.10,WNW,302,0.0,2.0,30,0.00,,,0.00,,2013-04-19 09:11:00,
2013-04-19 02:21:00,45.0,15.0,30.10,WNW,302,0.0,2.0,30,0.00,,,0.00,,2013-04-19 09:21:00,
2013-04-19 02:32:00,44.0,15.0,30.10,WNW,302,0.0,0.0,30,0.00,,,0.00,,2013-04-19 09:32:00,
2013-04-19 02:42:00,44.0,15.0,30.10,WNW,302,0.0,0.0,30,0.00,,,0.00,,2013-04-19 09:42:00,
2013-04-19 02:52:00,43.0,15.0,30.10,WNW,301,0.0,0.0,32,0.00,,,0.00,,2013-04-19 09:52:00,
2013-04-19 03:02:00,41.0,14.0,30.10,WNW,302,0.0,0.0,33,0.00,,,0.00,,2013-04-19 10:02:00,
2013-04-19 03:13:00,41.0,14.0,30.10,WNW,302,0.0,0.0,33,0.00,,,0.00,,2013-04-19 10:13:00,
2013-04-19 03:23:00,41.0,14.0,30.10,WNW,302,0.0,0.0,33,0.00,,,0.00,,2013-04-19 10:23:00,
2013-04-19 03:33:00,40.0,15.0,30.10,WNW,302,0.0,0.0,35,0.00,,,0.00,,2013-04-19 10:33:00,
2013-04-19 03:42:00,40.0,14.0,30.10,WNW,302,0.0,2.0,34,0.00,,,0.00,,2013-04-19 10:42:00,
2013-04-19 03:52:00,40.0,14.0,30.10,WNW,302,0.0,2.0,34,0.00,,,0.00,,2013-04-19 10:52:00,
2013-04-19 04:02:00,41.0,14.0,30.09,WNW,302,0.0,0.0,33,0.00,,,0.00,,2013-04-19 11:02:00,
2013-04-19 04:11:00,41.0,13.0,30.09,NW,321,0.0,0.0,32,0.00,,,0.00,,2013-04-19 11:11:00,
2013-04-19 04:21:00,41.0,13.0,30.09,NW,321,0.0,0.0,32,0.00,,,0.00,,2013-04-19 11:21:00,
2013-04-19 04:32:00,40.0,13.0,30.09,NW,321,0.0,2.0,33,0.00,,,0.00,,2013-04-19 11:32:00,
2013-04-19 04:42:00,40.0,13.0,30.09,NW,321,0.0,2.0,33,0.00,,,0.00,,2013-04-19 11:42:00,
2013-04-19 04:52:00,39.0,13.0,30.09,NW,321,1.0,2.0,34,0.00,,,0.00,,2013-04-19 11:52:00,
2013-04-19 05:02:00,40.0,13.0,30.09,North,1,1.0,2.0,32,0.00,,,0.00,,2013-04-19 12:02:00,
2013-04-19 05:12:00,40.0,14.0,30.09,North,1,0.0,2.0,34,0.00,,,0.00,,2013-04-19 12:12:00,
2013-04-19 05:22:00,40.0,14.0,30.09,North,1,0.0,2.0,34,0.00,,,0.00,,2013-04-19 12:22:00,
2013-04-19 05:32:00,39.0,14.0,30.10,North,1,0.0,2.0,35,0.00,,,0.00,,2013-04-19 12:32:00,
2013-04-19 05:42:00,39.0,14.0,30.10,North,1,0.0,2.0,35,0.00,,,0.00,,2013-04-19 12:42:00,
2013-04-19 05:52:00,39.0,13.0,30.10,North,3,0.0,3.0,34,0.00,,,0.00,,2013-04-19 12:52:00,
2013-04-19 06:01:00,38.0,13.0,30.11,North,3,0.0,0.0,35,0.00,,,0.00,,2013-04-19 13:01:00,
2013-04-19 06:11:00,39.0,13.0,30.12,North,3,0.0,2.0,34,0.00,,,0.00,,2013-04-19 13:11:00,
2013-04-19 06:21:00,39.0,13.0,30.12,North,3,0.0,2.0,34,0.00,,,0.00,,2013-04-19 13:21:00,
2013-04-19 06:32:00,41.0,13.0,30.12,NNE,33,0.0,3.0,32,0.00,,,0.00,,2013-04-19 13:32:00,
2013-04-19 06:41:00,41.0,13.0,30.12,NNE,33,0.0,3.0,32,0.00,,,0.00,,2013-04-19 13:41:00,
2013-04-19 06:52:00,44.0,15.0,30.12,NNE,33,0.0,2.0,30,0.00,,,0.00,,2013-04-19 13:52:00,
2013-04-19 07:01:00,48.0,14.0,30.12,East,89,1.0,10.0,25,0.00,,,0.00,,2013-04-19 14:01:00,
2013-04-19 07:11:00,58.0,9.0,30.11,ENE,57,9.0,20.0,14,0.00,,,0.00,,2013-04-19 14:11:00,
2013-04-19 07:31:00,60.0,7.0,30.11,ESE,104,6.0,20.0,12,0.00,,,0.00,,2013-04-19 14:31:00,
2013-04-19 07:42:00,60.0,7.0,30.11,ESE,104,6.0,20.0,12,0.00,,,0.00,,2013-04-19 14:42:00,
2013-04-19 07:52:00,61.0,6.0,30.11,East,79,9.0,21.0,11,0.00,,,0.00,,2013-04-19 14:52:00,
2013-04-19 08:01:00,62.0,3.0,30.11,ENE,67,9.0,21.0,9,0.00,,,0.00,,2013-04-19 15:01:00,
2013-04-19 08:11:00,63.0,3.0,30.11,ENE,72,7.0,16.0,9,0.00,,,0.00,,2013-04-19 15:11:00,
2013-04-19 08:21:00,63.0,3.0,30.11,ENE,72,7.0,16.0,9,0.00,,,0.00,,2013-04-19 15:21:00,
2013-04-19 08:33:00,65.0,2.0,30.11,East,98,7.0,14.0,8,0.00,,,0.00,,2013-04-19 15:33:00,
2013-04-19 08:42:00,65.0,2.0,30.11,East,98,7.0,14.0,8,0.00,,,0.00,,2013-04-19 15:42:00,
2013-04-19 08:52:00,65.0,-1.0,30.11,ENE,66,6.0,14.0,7,0.00,,,0.00,,2013-04-19 15:52:00,
2013-04-19 09:02:00,66.0,0.0,30.11,ESE,117,8.0,19.0,7,0.00,,,0.00,,2013-04-19 16:02:00,
2013-04-19 09:12:00,67.0,1.0,30.11,ENE,72,8.0,17.0,7,0.00,,,0.00,,2013-04-19 16:12:00,
2013-04-19 09:22:00,67.0,1.0,30.11,ENE,72,8.0,17.0,7,0.00,,,0.00,,2013-04-19 16:22:00,
2013-04-19 09:32:00,67.0,1.0,30.12,ENE,64,8.0,18.0,7,0.00,,,0.00,,2013-04-19 16:32:00,
2013-04-19 09:42:00,68.0,2.0,30.12,ESE,103,8.0,18.0,7,0.00,,,0.00,,2013-04-19 16:42:00,
2013-04-19 09:52:00,68.0,2.0,30.12,ESE,103,8.0,18.0,7,0.00,,,0.00,,2013-04-19 16:52:00,
2013-04-19 10:02:00,69.0,-1.0,30.12,ENE,78,7.0,22.0,6,0.00,,,0.00,,2013-04-19 17:02:00,
2013-04-19 10:11:00,69.0,-1.0,30.12,ENE,78,7.0,22.0,6,0.00,,,0.00,,2013-04-19 17:11:00,
2013-04-19 10:21:00,70.0,0.0,30.12,East,93,6.0,15.0,6,0.00,,,0.00,,2013-04-19 17:21:00,
2013-04-19 10:32:00,71.0,1.0,30.11,NE,53,6.0,16.0,6,0.00,,,0.00,,2013-04-19 17:32:00,
2013-04-19 10:42:00,71.0,1.0,30.11,NE,53,6.0,16.0,6,0.00,,,0.00,,2013-04-19 17:42:00,
2013-04-19 10:52:00,71.0,1.0,30.11,SE,141,8.0,16.0,6,0.00,,,0.00,,2013-04-19 17:52:00,
2013-04-19 11:01:00,73.0,2.0,30.09,ENE,68,7.0,15.0,6,0.00,,,0.00,,2013-04-19 18:01:00,
2013-04-19 11:13:00,73.0,2.0,30.09,ENE,68,7.0,15.0,6,0.00,,,0.00,,2013-04-19 18:13:00,
2013-04-19 11:22:00,73.0,-2.0,30.09,ENE,78,7.0,15.0,5,0.00,,,0.00,,2013-04-19 18:22:00,
2013-04-19 11:32:00,74.0,-1.0,30.09,NE,51,5.0,13.0,5,0.00,,,0.00,,2013-04-19 18:32:00,
2013-04-19 11:42:00,74.0,-1.0,30.09,NE,51,5.0,13.0,5,0.00,,,0.00,,2013-04-19 18:42:00,
2013-04-19 11:52:00,74.0,-1.0,30.09,ENE,74,4.0,10.0,5,0.00,,,0.00,,2013-04-19 18:52:00,
2013-04-19 12:01:00,75.0,0.0,30.08,East,99,2.0,12.0,5,0.00,,,0.00,,2013-04-19 19:01:00,
2013-04-19 12:11:00,74.0,-1.0,30.08,WSW,254,1.0,5.0,5,0.00,,,0.00,,2013-04-19 19:11:00,
2013-04-19 12:21:00,74.0,-1.0,30.08,WSW,254,1.0,5.0,5,0.00,,,0.00,,2013-04-19 19:21:00,
2013-04-19 12:31:00,77.0,1.0,30.07,SW,220,1.0,4.0,5,0.00,,,0.00,,2013-04-19 19:31:00,
2013-04-19 12:41:00,77.0,1.0,30.07,SW,220,1.0,4.0,5,0.00,,,0.00,,2013-04-19 19:41:00,
2013-04-19 12:52:00,76.0,0.0,30.06,SW,223,2.0,6.0,5,0.00,,,0.00,,2013-04-19 19:52:00,
2013-04-19 13:01:00,78.0,-3.0,30.05,NW,306,5.0,9.0,4,0.00,,,0.00,,2013-04-19 20:01:00,
2013-04-19 13:11:00,77.0,-4.0,30.04,WNW,285,2.0,7.0,4,0.00,,,0.00,,2013-04-19 20:11:00,
2013-04-19 13:21:00,77.0,-4.0,30.04,WNW,285,2.0,7.0,4,0.00,,,0.00,,2013-04-19 20:21:00,
2013-04-19 13:31:00,79.0,-2.0,30.03,SSW,213,4.0,10.0,4,0.00,,,0.00,,2013-04-19 20:31:00,
2013-04-19 13:41:00,79.0,-2.0,30.02,SSW,209,3.0,11.0,4,0.00,,,0.00,,2013-04-19 20:41:00,
2013-04-19 13:52:00,79.0,-2.0,30.02,SSW,209,3.0,11.0,4,0.00,,,0.00,,2013-04-19 20:52:00,
2013-04-19 14:01:00,79.0,-2.0,30.01,South,186,4.0,9.0,4,0.00,,,0.00,,2013-04-19 21:01:00,
2013-04-19 14:11:00,79.0,-2.0,30.01,SSW,195,4.0,10.0,4,0.00,,,0.00,,2013-04-19 21:11:00,
2013-04-19 14:21:00,79.0,-2.0,30.01,SSW,195,4.0,10.0,4,0.00,,,0.00,,2013-04-19 21:21:00,
2013-04-19 14:32:00,80.0,-8.0,30.00,WNW,290,2.0,7.0,3,0.00,,,0.00,,2013-04-19 21:32:00,
2013-04-19 14:42:00,80.0,-8.0,30.00,WNW,290,2.0,7.0,3,0.00,,,0.00,,2013-04-19 21:42:00,
2013-04-19 14:52:00,79.0,-8.0,29.98,West,266,2.0,7.0,3,0.00,,,0.00,,2013-04-19 21:52:00,
2013-04-19 15:02:00,81.0,-1.0,29.97,WSW,243,3.0,8.0,4,0.00,,,0.00,,2013-04-19 22:02:00,
2013-04-19 15:12:00,81.0,-1.0,29.96,SW,214,3.0,8.0,4,0.00,,,0.00,,2013-04-19 22:12:00,
2013-04-19 15:22:00,81.0,-1.0,29.96,SW,214,3.0,8.0,4,0.00,,,0.00,,2013-04-19 22:22:00,
2013-04-19 15:33:00,80.0,-2.0,29.95,SSW,199,2.0,8.0,4,0.00,,,0.00,,2013-04-19 22:33:00,
2013-04-19 15:41:00,81.0,-1.0,29.94,SSW,211,4.0,9.0,4,0.00,,,0.00,,2013-04-19 22:41:00,
2013-04-19 15:52:00,81.0,-1.0,29.94,SSW,211,4.0,9.0,4,0.00,,,0.00,,2013-04-19 22:52:00,
2013-04-19 16:02:00,81.0,-1.0,29.93,West,280,4.0,10.0,4,0.00,,,0.00,,2013-04-19 23:02:00,
2013-04-19 16:11:00,81.0,-1.0,29.93,West,280,4.0,10.0,4,0.00,,,0.00,,2013-04-19 23:11:00,
2013-04-19 16:21:00,80.0,-2.0,29.93,SSW,211,5.0,10.0,4,0.00,,,0.00,,2013-04-19 23:21:00,
2013-04-19 16:31:00,80.0,-2.0,29.92,WSW,249,5.0,10.0,4,0.00,,,0.00,,2013-04-19 23:31:00,
2013-04-19 16:42:00,80.0,-2.0,29.92,WSW,249,5.0,10.0,4,0.00,,,0.00,,2013-04-19 23:42:00,
2013-04-19 16:52:00,79.0,-2.0,29.92,WNW,286,4.0,9.0,4,0.00,,,0.00,,2013-04-19 23:52:00,
2013-04-19 17:01:00,79.0,-2.0,29.91,SW,224,3.0,9.0,4,0.00,,,0.00,,2013-04-20 00:01:00,
2013-04-19 17:11:00,79.0,-2.0,29.91,SW,224,3.0,9.0,4,0.00,,,0.00,,2013-04-20 00:11:00,
2013-04-19 17:21:00,80.0,-2.0,29.91,WSW,246,4.0,9.0,4,0.00,,,0.00,,2013-04-20 00:21:00,
2013-04-19 17:31:00,80.0,-2.0,29.90,SW,220,4.0,8.0,4,0.00,,,0.00,,2013-04-20 00:31:00,
2013-04-19 17:42:00,80.0,-2.0,29.90,SW,220,4.0,8.0,4,0.00,,,0.00,,2013-04-20 00:42:00,
2013-04-19 17:51:00,79.0,2.0,29.90,SSW,203,3.0,9.0,5,0.00,,,0.00,,2013-04-20 00:51:00,
2013-04-19 18:01:00,78.0,2.0,29.90,WSW,246,4.0,10.0,5,0.00,,,0.00,,2013-04-20 01:01:00,
2013-04-19 18:11:00,78.0,2.0,29.90,WSW,246,4.0,10.0,5,0.00,,,0.00,,2013-04-20 01:11:00,
2013-04-19 18:21:00,78.0,2.0,29.90,WSW,242,4.0,10.0,5,0.00,,,0.00,,2013-04-20 01:21:00,
2013-04-19 18:31:00,76.0,0.0,29.89,West,267,5.0,9.0,5,0.00,,,0.00,,2013-04-20 01:31:00,
2013-04-19 18:41:00,76.0,0.0,29.89,West,267,5.0,9.0,5,0.00,,,0.00,,2013-04-20 01:41:00,
2013-04-19 18:52:00,75.0,0.0,29.89,WSW,245,3.0,9.0,5,0.00,,,0.00,,2013-04-20 01:52:00,
2013-04-19 19:01:00,74.0,-1.0,29.89,West,274,2.0,7.0,5,0.00,,,0.00,,2013-04-20 02:01:00,
2013-04-19 19:11:00,72.0,1.0,29.89,WSW,240,2.0,7.0,6,0.00,,,0.00,,2013-04-20 02:11:00,
2013-04-19 19:21:00,72.0,1.0,29.89,WSW,240,2.0,7.0,6,0.00,,,0.00,,2013-04-20 02:21:00,
2013-04-19 19:31:00,70.0,0.0,29.90,WSW,253,0.0,4.0,6,0.00,,,0.00,,2013-04-20 02:31:00,
2013-04-19 19:42:00,70.0,0.0,29.90,WSW,253,0.0,4.0,6,0.00,,,0.00,,2013-04-20 02:42:00,
2013-04-19 19:52:00,69.0,2.0,29.90,NW,317,1.0,4.0,7,0.00,,,0.00,,2013-04-20 02:52:00,
2013-04-19 20:01:00,67.0,6.0,29.90,NW,307,0.0,0.0,9,0.00,,,0.00,,2013-04-20 03:01:00,
2013-04-19 20:11:00,66.0,6.0,29.91,NW,307,0.0,1.0,9,0.00,,,0.00,,2013-04-20 03:11:00,
2013-04-19 20:21:00,66.0,6.0,29.91,NW,307,0.0,1.0,9,0.00,,,0.00,,2013-04-20 03:21:00,
2013-04-19 20:32:00,63.0,8.0,29.91,WNW,303,0.0,1.0,11,0.00,,,0.00,,2013-04-20 03:32:00,
2013-04-19 20:43:00,64.0,4.0,29.91,ENE,66,1.0,3.0,9,0.00,,,0.00,,2013-04-20 03:43:00,
2013-04-19 20:52:00,64.0,4.0,29.91,ENE,66,1.0,3.0,9,0.00,,,0.00,,2013-04-20 03:52:00,
2013-04-19 21:02:00,63.0,6.0,29.91,ENE,66,0.0,3.0,10,0.00,,,0.00,,2013-04-20 04:02:00,
2013-04-19 21:12:00,63.0,6.0,29.91,ENE,66,0.0,3.0,10,0.00,,,0.00,,2013-04-20 04:12:00,
2013-04-19 21:22:00,61.0,8.0,29.91,ENE,66,0.0,0.0,12,0.00,,,0.00,,2013-04-20 04:22:00,
2013-04-19 21:32:00,60.0,5.0,29.92,ENE,66,0.0,0.0,11,0.00,,,0.00,,2013-04-20 04:32:00,
2013-04-19 21:42:00,60.0,5.0,29.92,ENE,66,0.0,0.0,11,0.00,,,0.00,,2013-04-20 04:42:00,
2013-04-19 21:52:00,58.0,6.0,29.92,ENE,66,0.0,1.0,12,0.00,,,0.00,,2013-04-20 04:52:00,
2013-04-19 22:01:00,59.0,6.0,29.91,ENE,70,0.0,2.0,12,0.00,,,0.00,,2013-04-20 05:01:00,
2013-04-19 22:12:00,59.0,6.0,29.91,ENE,70,0.0,2.0,12,0.00,,,0.00,,2013-04-20 05:12:00,
2013-04-19 22:21:00,59.0,6.0,29.91,ENE,70,0.0,4.0,12,0.00,,,0.00,,2013-04-20 05:21:00,
2013-04-19 22:32:00,58.0,7.0,29.91,ENE,71,1.0,2.0,13,0.00,,,0.00,,2013-04-20 05:32:00,
2013-04-19 22:42:00,58.0,7.0,29.91,ENE,71,1.0,2.0,13,0.00,,,0.00,,2013-04-20 05:42:00,
2013-04-19 22:52:00,57.0,8.0,29.91,ENE,71,0.0,2.0,14,0.00,,,0.00,,2013-04-20 05:52:00,
2013-04-19 23:01:00,56.0,9.0,29.91,ENE,70,1.0,2.0,15,0.00,,,0.00,,2013-04-20 06:01:00,
2013-04-19 23:12:00,56.0,9.0,29.91,ENE,70,1.0,2.0,15,0.00,,,0.00,,2013-04-20 06:12:00,
2013-04-19 23:21:00,56.0,7.0,29.91,ENE,70,0.0,4.0,14,0.00,,,0.00,,2013-04-20 06:21:00,
2013-04-19 23:31:00,54.0,7.0,29.91,ENE,70,0.0,0.0,15,0.00,,,0.00,,2013-04-20 06:31:00,
2013-04-19 23:42:00,54.0,7.0,29.91,ENE,70,0.0,0.0,15,0.00,,,0.00,,2013-04-20 06:42:00,
2013-04-19 23:52:00,53.0,8.0,29.91,ENE,70,0.0,2.0,16,0.00,,,0.00,,2013-04-20 06:52:00,